Time;durP1;ratioP1;P1;durP2;ratioP2;P2;SDS_P1;SDS_P2;PMS_P1;PMS_P2;Temp;Humidity;BMP_temperature;BMP_pressure;BME280_temperature;BME280_humidity;BME280_pressure;Samples;Min_cycle;Max_cycle;Signal;HPM_P1;HPM_P2
2023/09/26 00:00:34;;;;;;;4.88;2.70;;;15.10;99.90;;;;;;5075769;28;20128;-90
2023/09/26 00:03:00;;;;;;;4.45;2.70;;;15.10;99.90;;;;;;5017300;28;20071;-92
2023/09/26 00:05:27;;;;;;;4.22;2.88;;;15.10;99.90;;;;;;5051532;28;20040;-91
2023/09/26 00:07:54;;;;;;;3.25;2.90;;;15.10;99.90;;;;;;5004960;28;20479;-92
2023/09/26 00:10:20;;;;;;;4.22;3.13;;;15.10;99.90;;;;;;5037173;28;20102;-91
2023/09/26 00:12:46;;;;;;;4.75;2.90;;;15.20;99.90;;;;;;5025880;28;20036;-91
2023/09/26 00:15:12;;;;;;;4.00;2.65;;;15.20;99.90;;;;;;5088919;28;20032;-90
2023/09/26 00:17:38;;;;;;;4.63;3.03;;;15.20;99.90;;;;;;5025187;28;20724;-89
2023/09/26 00:20:10;;;;;;;5.55;3.17;;;15.20;99.90;;;;;;5017618;28;20044;-89
2023/09/26 00:22:36;;;;;;;4.03;2.47;;;15.20;99.90;;;;;;5017634;28;20044;-89
2023/09/26 00:25:03;;;;;;;4.68;3.30;;;15.20;99.90;;;;;;5009888;28;20086;-89
2023/09/26 00:27:28;;;;;;;4.67;2.90;;;15.20;99.90;;;;;;5038132;28;20577;-89
2023/09/26 00:29:54;;;;;;;3.58;2.45;;;15.20;99.90;;;;;;5022735;28;20044;-90
2023/09/26 00:32:20;;;;;;;3.67;2.83;;;15.20;99.90;;;;;;5028189;28;20041;-90
2023/09/26 00:34:46;;;;;;;4.45;3.00;;;15.20;99.90;;;;;;5061783;28;20036;-91
2023/09/26 00:37:11;;;;;;;4.22;2.72;;;15.20;99.90;;;;;;5021556;28;20090;-92
2023/09/26 00:39:37;;;;;;;4.43;3.08;;;15.20;99.90;;;;;;5002533;28;20033;-92
2023/09/26 00:42:03;;;;;;;5.55;3.22;;;15.20;99.90;;;;;;5023554;28;20046;-91
2023/09/26 00:44:29;;;;;;;4.88;3.25;;;15.20;99.90;;;;;;5001627;28;20175;-90
2023/09/26 00:46:59;;;;;;;4.78;3.30;;;15.20;99.90;;;;;;5030639;28;20052;-91
2023/09/26 00:49:27;;;;;;;4.10;3.40;;;15.20;99.90;;;;;;5059529;28;20105;-92
2023/09/26 00:51:54;;;;;;;5.82;3.33;;;15.20;99.90;;;;;;5059060;28;20070;-91
2023/09/26 00:54:20;;;;;;;5.55;3.70;;;15.30;99.90;;;;;;5042191;28;20542;-91
2023/09/26 00:56:46;;;;;;;5.10;3.47;;;15.30;99.90;;;;;;5038633;28;20047;-90
2023/09/26 00:59:11;;;;;;;4.45;3.38;;;15.30;99.90;;;;;;5046940;28;20032;-89
2023/09/26 01:01:38;;;;;;;3.40;2.88;;;15.30;99.90;;;;;;5042517;28;20089;-90
2023/09/26 01:04:05;;;;;;;6.40;2.70;;;15.30;99.90;;;;;;5056015;28;20119;-90
2023/09/26 01:06:30;;;;;;;4.72;3.60;;;15.30;99.90;;;;;;5060376;28;20078;-90
2023/09/26 01:08:56;;;;;;;5.57;3.40;;;15.30;99.90;;;;;;5028268;28;20067;-91
2023/09/26 01:11:22;;;;;;;4.70;3.40;;;15.20;99.90;;;;;;5065425;28;20042;-91
2023/09/26 01:13:48;;;;;;;4.55;3.25;;;15.20;99.90;;;;;;5041598;28;20051;-91
2023/09/26 01:16:18;;;;;;;4.40;3.42;;;15.20;99.90;;;;;;5020638;28;20690;-91
2023/09/26 01:18:45;;;;;;;4.80;3.97;;;15.20;99.90;;;;;;5074052;28;20811;-91
2023/09/26 01:21:11;;;;;;;5.55;3.50;;;15.20;99.90;;;;;;5091392;28;20044;-92
2023/09/26 01:23:40;;;;;;;6.32;3.85;;;15.20;99.90;;;;;;5043015;28;20036;-92
2023/09/26 01:26:06;;;;;;;6.47;4.40;;;15.20;99.90;;;;;;5059781;28;20475;-92
2023/09/26 01:28:32;;;;;;;6.05;3.97;;;15.20;99.90;;;;;;5043371;28;20173;-92
2023/09/26 01:30:57;;;;;;;6.68;4.05;;;15.10;99.90;;;;;;5043332;28;20395;-92
2023/09/26 01:33:23;;;;;;;5.43;4.07;;;15.10;99.90;;;;;;5039594;28;20041;-93
2023/09/26 01:35:51;;;;;;;5.60;3.90;;;15.00;99.90;;;;;;5060218;28;20051;-92
2023/09/26 01:38:19;;;;;;;4.97;3.58;;;15.00;99.90;;;;;;5041980;28;20040;-92
2023/09/26 01:40:45;;;;;;;5.53;3.60;;;15.00;99.90;;;;;;5042175;28;20044;-91
2023/09/26 01:43:11;;;;;;;4.70;3.60;;;15.00;99.90;;;;;;5059246;28;20036;-91
2023/09/26 01:45:37;;;;;;;5.25;3.58;;;14.90;99.90;;;;;;5051115;28;20123;-90
2023/09/26 01:48:05;;;;;;;4.72;3.95;;;14.90;99.90;;;;;;5063097;28;20047;-91
2023/09/26 01:50:36;;;;;;;5.03;3.38;;;14.90;99.90;;;;;;5048114;28;20079;-90
2023/09/26 01:53:05;;;;;;;6.93;3.88;;;14.90;99.90;;;;;;5057836;28;20036;-91
2023/09/26 01:55:31;;;;;;;4.32;3.85;;;14.90;99.90;;;;;;5040616;28;20040;-91
2023/09/26 01:57:57;;;;;;;5.43;3.60;;;14.90;99.90;;;;;;5074683;28;20047;-91
2023/09/26 02:00:23;;;;;;;4.90;3.63;;;14.80;99.90;;;;;;5044545;28;20043;-90
2023/09/26 02:02:50;;;;;;;7.90;4.03;;;14.80;99.90;;;;;;5059610;28;21372;-90
2023/09/26 02:05:19;;;;;;;6.88;3.78;;;14.80;99.90;;;;;;5058999;28;20036;-90
2023/09/26 02:07:48;;;;;;;7.07;3.85;;;14.80;99.90;;;;;;5056518;28;20487;-90
2023/09/26 02:10:14;;;;;;;5.22;4.30;;;14.80;99.90;;;;;;5107876;28;20123;-91
2023/09/26 02:12:43;;;;;;;5.82;4.30;;;14.80;99.90;;;;;;5056360;28;20484;-92
2023/09/26 02:15:11;;;;;;;5.97;4.07;;;14.80;99.90;;;;;;5043016;28;20046;-92
2023/09/26 02:17:39;;;;;;;5.70;3.80;;;14.80;99.90;;;;;;5075873;28;20051;-92
2023/09/26 02:20:12;;;;;;;6.68;4.50;;;14.70;99.90;;;;;;5036126;28;20076;-91
2023/09/26 02:22:39;;;;;;;6.43;4.43;;;14.70;99.90;;;;;;5061135;28;20394;-91
2023/09/26 02:25:05;;;;;;;5.38;4.53;;;14.70;99.90;;;;;;5058637;28;20040;-92
2023/09/26 02:27:31;;;;;;;5.32;4.45;;;14.70;99.90;;;;;;5038454;28;20037;-92
2023/09/26 02:29:58;;;;;;;4.78;4.28;;;14.70;99.90;;;;;;5050081;28;20043;-91
2023/09/26 02:32:24;;;;;;;7.90;4.88;;;14.70;99.90;;;;;;5038215;28;20040;-92
2023/09/26 02:34:50;;;;;;;6.03;4.85;;;14.70;99.90;;;;;;5041754;28;20040;-92
2023/09/26 02:37:15;;;;;;;6.10;4.95;;;14.70;99.90;;;;;;5058113;28;20047;-91
2023/09/26 02:39:41;;;;;;;6.20;5.20;;;14.70;99.90;;;;;;5041654;28;20036;-92
2023/09/26 02:42:07;;;;;;;6.28;4.82;;;14.60;99.90;;;;;;5042366;28;20043;-91
2023/09/26 02:44:33;;;;;;;6.00;5.13;;;14.60;99.90;;;;;;5080887;28;20044;-91
2023/09/26 02:46:58;;;;;;;6.10;5.20;;;14.50;99.90;;;;;;5056833;28;20108;-92
2023/09/26 02:49:24;;;;;;;6.18;5.55;;;14.60;99.90;;;;;;5055021;28;20044;-91
2023/09/26 02:51:50;;;;;;;5.80;4.75;;;14.50;99.90;;;;;;5026840;28;20048;-91
2023/09/26 02:54:16;;;;;;;5.80;5.20;;;14.50;99.90;;;;;;5037602;28;20127;-90
2023/09/26 02:56:41;;;;;;;7.45;5.80;;;14.50;99.90;;;;;;5042087;28;20047;-90
2023/09/26 02:59:07;;;;;;;7.32;5.60;;;14.50;99.90;;;;;;5031330;28;20086;-89
2023/09/26 03:01:33;;;;;;;7.43;6.28;;;14.50;99.90;;;;;;5026346;28;20083;-89
2023/09/26 03:03:59;;;;;;;8.07;6.20;;;14.40;99.90;;;;;;5003385;28;20044;-90
2023/09/26 03:06:24;;;;;;;7.55;6.32;;;14.40;99.90;;;;;;5018434;28;20483;-91
2023/09/26 03:08:50;;;;;;;9.18;7.30;;;14.30;99.90;;;;;;5032562;28;20038;-90
2023/09/26 03:11:16;;;;;;;8.10;6.88;;;14.30;99.90;;;;;;5049875;28;20073;-91
2023/09/26 03:13:41;;;;;;;8.00;6.50;;;13.40;99.90;;;;;;5037603;28;20041;-90
2023/09/26 03:16:08;;;;;;;7.95;6.28;;;14.20;99.90;;;;;;5051729;28;20047;-90
2023/09/26 03:18:38;;;;;;;7.35;6.63;;;14.10;99.90;;;;;;5070024;28;20044;-90
2023/09/26 03:21:06;;;;;;;9.23;7.05;;;14.10;99.90;;;;;;5035869;28;20336;-90
2023/09/26 03:23:33;;;;;;;7.80;6.43;;;14.10;99.90;;;;;;5002796;28;20083;-91
2023/09/26 03:25:58;;;;;;;8.38;6.68;;;14.00;99.90;;;;;;5037573;28;20040;-91
2023/09/26 03:28:24;;;;;;;13.13;7.90;;;13.90;99.90;;;;;;5042335;28;20155;-91
2023/09/26 03:30:50;;;;;;;8.82;7.82;;;13.90;99.90;;;;;;5053620;28;20048;-91
2023/09/26 03:33:16;;;;;;;8.35;7.43;;;13.90;99.90;;;;;;5036023;28;20041;-91
2023/09/26 03:35:42;;;;;;;10.57;8.02;;;13.90;99.90;;;;;;5033676;28;20047;-91
2023/09/26 03:38:07;;;;;;;9.02;7.57;;;13.80;99.90;;;;;;5011879;28;20052;-90
2023/09/26 03:40:33;;;;;;;10.32;7.38;;;13.80;99.90;;;;;;5023904;28;20090;-91
2023/09/26 03:42:59;;;;;;;10.10;7.97;;;13.70;99.90;;;;;;5035876;28;20041;-90
2023/09/26 03:45:24;;;;;;;9.45;8.45;;;13.70;99.90;;;;;;5003262;28;20060;-89
2023/09/26 03:47:51;;;;;;;10.13;8.43;;;13.70;99.90;;;;;;5018723;28;20048;-91
2023/09/26 03:50:16;;;;;;;11.07;8.85;;;13.70;99.90;;;;;;5019965;28;20049;-92
2023/09/26 03:52:42;;;;;;;9.63;8.15;;;13.60;99.90;;;;;;5001372;28;20052;-91
2023/09/26 03:55:08;;;;;;;9.18;8.27;;;13.60;99.90;;;;;;5057458;28;20044;-91
2023/09/26 03:57:34;;;;;;;12.40;8.20;;;13.50;99.90;;;;;;5020140;28;20567;-92
2023/09/26 04:00:07;;;;;;;9.55;8.38;;;13.50;99.90;;;;;;5037450;28;20475;-91
2023/09/26 04:02:33;;;;;;;9.70;8.57;;;13.50;99.90;;;;;;5010150;28;20502;-92
2023/09/26 04:04:58;;;;;;;9.73;8.57;;;13.50;99.90;;;;;;5041917;28;20040;-92
2023/09/26 04:07:28;;;;;;;9.50;8.57;;;13.50;99.90;;;;;;5025841;28;20047;-92
2023/09/26 04:09:53;;;;;;;9.68;8.65;;;13.40;99.90;;;;;;5059584;28;20055;-93
2023/09/26 04:12:19;;;;;;;9.75;8.50;;;13.40;99.90;;;;;;5040922;28;20136;-93
2023/09/26 04:14:45;;;;;;;9.32;8.35;;;13.30;99.90;;;;;;5035635;28;20037;-92
2023/09/26 04:17:10;;;;;;;10.45;8.32;;;13.30;99.90;;;;;;5045526;28;20040;-93
2023/09/26 04:19:36;;;;;;;8.35;7.47;;;13.20;99.90;;;;;;5019107;28;20642;-91
2023/09/26 04:22:03;;;;;;;11.05;8.52;;;13.20;99.90;;;;;;5021340;28;20422;-91
2023/09/26 04:24:29;;;;;;;12.40;8.88;;;12.90;99.90;;;;;;5022367;28;20041;-90
2023/09/26 04:26:55;;;;;;;12.60;8.90;;;;;;;;;;5018270;28;20633;-90
2023/09/26 04:29:21;;;;;;;9.73;8.73;;;13.20;99.90;;;;;;5036510;28;20123;-91
2023/09/26 04:31:47;;;;;;;11.43;8.75;;;13.10;99.90;;;;;;5008919;28;20076;-92
2023/09/26 04:34:12;;;;;;;9.20;8.10;;;13.10;99.90;;;;;;5001895;28;20124;-91
2023/09/26 04:36:38;;;;;;;9.27;8.30;;;13.10;99.90;;;;;;5040177;28;20886;-91
2023/09/26 04:39:04;;;;;;;10.05;8.48;;;13.00;99.90;;;;;;5023302;28;20052;-90
2023/09/26 04:41:29;;;;;;;13.02;8.65;;;13.00;99.90;;;;;;5023438;28;20081;-91
2023/09/26 04:43:55;;;;;;;9.88;7.90;;;13.00;99.90;;;;;;5040990;28;20059;-90
2023/09/26 04:46:21;;;;;;;8.07;7.28;;;12.90;99.90;;;;;;5001017;28;20056;-90
2023/09/26 04:48:47;;;;;;;8.63;7.72;;;12.90;99.90;;;;;;5074450;28;20032;-92
2023/09/26 04:51:14;;;;;;;10.15;7.55;;;12.90;99.90;;;;;;5043900;28;20135;-91
2023/09/26 04:53:41;;;;;;;8.90;8.00;;;12.90;99.90;;;;;;5044228;28;20044;-90
2023/09/26 04:56:07;;;;;;;10.05;7.53;;;12.90;99.90;;;;;;5060918;28;20047;-90
2023/09/26 04:58:33;;;;;;;8.05;7.25;;;12.90;99.90;;;;;;5080596;28;20097;-90
2023/09/26 05:01:09;;;;;;;8.60;7.80;;;12.90;99.90;;;;;;5050613;28;20180;-90
2023/09/26 05:03:35;;;;;;;10.15;7.63;;;12.90;99.90;;;;;;5056247;28;20589;-91
2023/09/26 05:06:01;;;;;;;9.38;7.72;;;12.90;99.90;;;;;;5068833;28;20036;-93
2023/09/26 05:08:26;;;;;;;8.15;7.35;;;12.90;99.90;;;;;;5062642;28;20671;-92
2023/09/26 05:10:52;;;;;;;8.50;7.47;;;12.90;99.90;;;;;;5063751;28;20046;-91
2023/09/26 05:13:18;;;;;;;8.63;7.78;;;12.80;99.90;;;;;;5055758;28;20119;-91
2023/09/26 05:15:44;;;;;;;10.40;7.97;;;12.90;99.90;;;;;;5021888;28;20060;-91
2023/09/26 05:18:10;;;;;;;8.65;7.75;;;12.90;99.90;;;;;;5038461;28;20043;-88
2023/09/26 05:20:36;;;;;;;10.70;8.73;;;12.90;99.90;;;;;;5049323;28;20392;-91
2023/09/26 05:23:03;;;;;;;10.82;7.97;;;12.90;99.90;;;;;;5055762;28;20031;-91
2023/09/26 05:25:28;;;;;;;8.48;7.57;;;12.80;99.90;;;;;;5082436;28;20458;-91
2023/09/26 05:27:54;;;;;;;8.77;7.88;;;12.80;99.90;;;;;;5041437;28;20043;-90
2023/09/26 05:30:20;;;;;;;9.23;8.32;;;12.80;99.90;;;;;;5059052;28;20039;-90
2023/09/26 05:32:46;;;;;;;9.57;8.23;;;12.80;99.90;;;;;;5053028;28;20040;-91
2023/09/26 05:35:11;;;;;;;12.65;7.80;;;12.80;99.90;;;;;;5045696;28;20044;-91
2023/09/26 05:37:38;;;;;;;8.90;7.72;;;12.90;99.90;;;;;;5058612;28;20486;-92
2023/09/26 05:40:09;;;;;;;9.10;7.27;;;12.90;99.90;;;;;;5037312;28;20728;-90
2023/09/26 05:42:39;;;;;;;8.70;7.50;;;12.80;99.90;;;;;;5032968;28;20467;-89
2023/09/26 05:45:09;;;;;;;9.00;7.68;;;12.90;99.90;;;;;;5054158;28;20036;-90
2023/09/26 05:47:35;;;;;;;8.70;7.65;;;12.90;99.90;;;;;;5070277;28;20049;-89
2023/09/26 05:50:03;;;;;;;8.50;7.17;;;12.90;99.90;;;;;;5066751;28;20514;-89
2023/09/26 05:52:29;;;;;;;9.18;7.63;;;12.90;99.90;;;;;;5098380;27;20560;-89
2023/09/26 05:54:55;;;;;;;10.05;7.93;;;12.90;99.90;;;;;;5041086;28;20050;-88
2023/09/26 05:57:20;;;;;;;8.90;7.55;;;12.90;99.90;;;;;;5057279;28;20046;-88
2023/09/26 05:59:47;;;;;;;11.43;8.60;;;12.90;99.90;;;;;;5053099;28;20115;-89
2023/09/26 06:02:14;;;;;;;9.50;6.88;;;13.00;99.90;;;;;;5060843;28;20097;-87
2023/09/26 06:04:43;;;;;;;;;;;12.90;99.90;;;;;;5068298;28;20841;-88
2023/09/26 06:07:10;;;;;;;10.00;7.38;;;13.00;99.90;;;;;;5088834;28;19916;-90
2023/09/26 06:09:39;;;;;;;8.70;7.53;;;13.00;99.90;;;;;;5057971;28;20044;-89
2023/09/26 06:12:05;;;;;;;10.60;7.22;;;13.00;99.90;;;;;;5049658;28;20044;-90
2023/09/26 06:14:34;;;;;;;8.00;7.03;;;13.00;99.90;;;;;;5038359;28;20063;-90
2023/09/26 06:17:00;;;;;;;8.55;7.00;;;13.00;99.90;;;;;;5040441;28;20088;-89
2023/09/26 06:19:26;;;;;;;8.32;7.15;;;13.10;99.90;;;;;;5057235;28;20032;-91
2023/09/26 06:21:52;;;;;;;8.35;7.50;;;13.20;99.90;;;;;;5042151;28;20058;-89
2023/09/26 06:24:18;;;;;;;10.68;7.80;;;13.20;99.90;;;;;;5026432;28;20094;-89
2023/09/26 06:26:43;;;;;;;9.90;7.45;;;13.20;99.90;;;;;;5070331;28;20210;-88
2023/09/26 06:29:09;;;;;;;9.23;7.35;;;13.30;99.90;;;;;;5070746;28;20047;-89
2023/09/26 06:31:40;;;;;;;8.07;6.80;;;13.30;99.90;;;;;;5050300;28;20052;-89
2023/09/26 06:34:05;;;;;;;8.52;6.95;;;13.40;99.90;;;;;;5082270;28;20036;-88
2023/09/26 06:36:31;;;;;;;8.55;7.05;;;13.40;99.90;;;;;;5031432;28;20047;-89
2023/09/26 06:38:57;;;;;;;7.90;7.10;;;13.50;99.90;;;;;;5057593;28;20760;-89
2023/09/26 06:41:24;;;;;;;8.38;6.85;;;13.60;99.90;;;;;;5057700;28;20161;-90
2023/09/26 06:43:49;;;;;;;10.10;7.28;;;13.70;99.90;;;;;;5084798;28;20040;-89
2023/09/26 06:46:15;;;;;;;7.40;6.70;;;13.70;99.90;;;;;;5072171;28;20032;-89
2023/09/26 06:48:44;;;;;;;8.60;7.38;;;13.80;99.90;;;;;;5064710;28;20047;-90
2023/09/26 06:51:11;;;;;;;9.73;7.07;;;13.80;99.90;;;;;;5074647;28;20055;-87
2023/09/26 06:53:37;;;;;;;8.45;7.20;;;13.90;99.90;;;;;;5038062;28;20052;-89
2023/09/26 06:56:07;;;;;;;7.30;6.53;;;13.90;99.90;;;;;;5063872;28;20046;-88
2023/09/26 06:58:35;;;;;;;9.75;6.72;;;14.00;99.90;;;;;;5054156;28;20068;-89
2023/09/26 07:01:00;;;;;;;6.57;5.88;;;14.00;99.90;;;;;;5082198;28;20036;-87
2023/09/26 07:03:27;;;;;;;7.15;6.45;;;14.10;99.90;;;;;;5063473;28;21718;-88
2023/09/26 07:05:54;;;;;;;7.63;6.68;;;14.10;99.90;;;;;;5068255;28;20047;-89
2023/09/26 07:08:20;;;;;;;7.60;6.82;;;14.20;99.90;;;;;;5055060;28;20059;-89
2023/09/26 07:10:46;;;;;;;7.35;6.57;;;14.30;99.90;;;;;;5065984;28;20048;-89
2023/09/26 07:13:13;;;;;;;6.90;6.28;;;14.90;99.90;;;;;;5050617;28;20394;-89
2023/09/26 07:15:42;;;;;;;8.82;7.00;;;14.40;99.90;;;;;;5056084;28;20544;-91
2023/09/26 07:18:10;;;;;;;9.15;6.95;;;13.80;99.90;;;;;;5066904;28;21150;-91
2023/09/26 07:20:36;;;;;;;;;;;14.60;99.90;;;;;;5053304;28;20036;-90
2023/09/26 07:23:03;;;;;;;6.43;5.80;;;14.70;99.90;;;;;;5045444;28;19923;-92
2023/09/26 07:25:29;;;;;;;7.25;6.38;;;14.90;99.90;;;;;;5048853;28;20040;-92
2023/09/26 07:27:55;;;;;;;7.50;6.38;;;15.00;99.90;;;;;;5042490;28;20039;-93
2023/09/26 07:30:21;;;;;;;8.85;6.05;;;15.10;99.90;;;;;;5052941;28;20040;-92
2023/09/26 07:32:47;;;;;;;7.18;6.38;;;14.70;99.90;;;;;;5037421;28;20051;-91
2023/09/26 07:35:13;;;;;;;6.70;5.57;;;15.30;99.90;;;;;;5028549;28;20036;-93
2023/09/26 07:37:39;;;;;;;10.07;6.13;;;15.50;99.90;;;;;;5057480;28;20052;-93
2023/09/26 07:40:08;;;;;;;6.53;5.68;;;15.60;99.90;;;;;;5078920;28;20043;-91
2023/09/26 07:42:36;;;;;;;7.38;5.32;;;15.60;99.90;;;;;;5061283;28;20078;-92
2023/09/26 07:45:02;;;;;;;6.22;5.20;;;15.70;99.90;;;;;;5061343;28;20036;-90
2023/09/26 07:47:28;;;;;;;6.32;4.75;;;15.70;99.90;;;;;;5063283;28;20059;-90
2023/09/26 07:49:54;;;;;;;7.30;5.13;;;15.70;99.90;;;;;;5095080;28;20056;-91
2023/09/26 07:52:25;;;;;;;6.20;5.60;;;15.20;99.90;;;;;;5058297;28;20040;-91
2023/09/26 07:54:52;;;;;;;5.70;4.93;;;;;;;;;;5108824;28;20379;-91
2023/09/26 07:57:19;;;;;;;5.93;5.03;;;15.90;99.90;;;;;;5061333;28;20047;-91
2023/09/26 07:59:45;;;;;;;7.35;5.47;;;16.00;99.90;;;;;;5051296;28;20475;-89
2023/09/26 08:02:10;;;;;;;6.85;5.28;;;16.20;99.90;;;;;;5042144;28;20032;-91
2023/09/26 08:04:36;;;;;;;8.30;5.47;;;16.30;99.90;;;;;;5088149;28;20039;-92
2023/09/26 08:07:02;;;;;;;6.70;4.70;;;16.60;99.90;;;;;;5059113;28;20041;-92
2023/09/26 08:09:28;;;;;;;7.45;5.00;;;16.90;99.90;;;;;;5091753;28;20498;-93
2023/09/26 08:11:54;;;;;;;7.15;5.30;;;17.10;99.90;;;;;;5051088;28;20037;-94
2023/09/26 08:14:20;;;;;;;8.18;4.95;;;17.10;99.90;;;;;;5061080;28;20051;-91
2023/09/26 08:16:47;;;;;;;7.43;5.35;;;17.10;99.90;;;;;;5051466;28;20048;-91
2023/09/26 08:19:13;;;;;;;5.50;4.72;;;17.20;99.90;;;;;;5038657;28;20255;-91
2023/09/26 08:21:39;;;;;;;6.72;5.13;;;17.30;99.90;;;;;;5059912;28;20044;-93
2023/09/26 08:24:06;;;;;;;6.38;4.70;;;17.50;99.90;;;;;;5044747;28;20398;-91
2023/09/26 08:26:32;;;;;;;6.30;4.60;;;17.50;99.90;;;;;;5042212;28;20036;-92
2023/09/26 08:28:58;;;;;;;6.40;4.40;;;17.60;99.90;;;;;;5009341;28;20040;-92
2023/09/26 08:31:25;;;;;;;7.20;4.80;;;17.50;99.90;;;;;;5058328;28;20427;-94
2023/09/26 08:33:51;;;;;;;8.82;4.55;;;17.50;99.90;;;;;;5077084;28;20067;-94
2023/09/26 08:36:19;;;;;;;6.90;5.00;;;17.50;99.90;;;;;;5042647;28;20072;-92
2023/09/26 08:38:46;;;;;;;6.55;5.45;;;17.50;99.90;;;;;;5057020;28;20044;-94
2023/09/26 08:41:13;;;;;;;6.47;4.78;;;17.50;99.90;;;;;;5057546;28;20113;-92
2023/09/26 08:43:39;;;;;;;5.93;4.70;;;17.50;99.90;;;;;;5051033;28;20032;-93
2023/09/26 08:46:06;;;;;;;6.28;4.63;;;17.50;99.90;;;;;;5067551;28;20122;-91
2023/09/26 08:48:33;;;;;;;7.50;5.45;;;17.50;99.90;;;;;;5045189;28;20603;-91
2023/09/26 08:50:59;;;;;;;5.53;4.25;;;17.40;99.90;;;;;;5056122;28;20055;-93
2023/09/26 08:53:25;;;;;;;5.30;4.40;;;17.40;99.90;;;;;;5061247;28;20483;-92
2023/09/26 08:55:51;;;;;;;4.93;4.20;;;17.40;99.90;;;;;;5092297;28;20521;-93
2023/09/26 08:58:20;;;;;;;6.03;4.80;;;17.40;99.90;;;;;;5059645;28;20067;-93
2023/09/26 09:00:46;;;;;;;5.38;4.03;;;17.50;99.90;;;;;;5055008;28;20044;-93
2023/09/26 09:03:13;;;;;;;7.18;4.15;;;17.50;99.90;;;;;;5070458;28;20032;-90
2023/09/26 09:05:40;;;;;;;6.28;4.60;;;17.60;99.90;;;;;;5057069;28;20455;-92
2023/09/26 09:08:08;;;;;;;7.97;4.70;;;17.70;99.90;;;;;;5034999;28;20494;-91
2023/09/26 09:10:56;;;;;;;5.43;4.20;;;17.70;99.90;;;;;;5041028;28;20166;-89
2023/09/26 09:13:34;;;;;;;5.00;3.80;;;17.80;99.90;;;;;;5061481;28;20047;-90
2023/09/26 09:16:20;;;;;;;6.07;4.50;;;17.90;99.90;;;;;;5045865;28;20049;-91
2023/09/26 09:18:50;;;;;;;5.65;4.28;;;18.10;99.90;;;;;;5056455;28;20109;-93
2023/09/26 09:21:21;;;;;;;6.13;4.60;;;18.20;99.90;;;;;;5058722;28;20036;-89
2023/09/26 09:23:48;;;;;;;5.28;4.10;;;18.30;99.90;;;;;;5057615;28;20044;-90
2023/09/26 09:26:14;;;;;;;6.28;4.43;;;18.30;99.90;;;;;;5050599;28;20039;-89
2023/09/26 09:28:40;;;;;;;5.75;4.05;;;18.40;99.90;;;;;;5057811;28;20158;-91
2023/09/26 09:31:06;;;;;;;6.22;3.72;;;18.80;99.90;;;;;;5059058;28;20495;-90
2023/09/26 09:33:32;;;;;;;7.63;4.43;;;18.70;99.90;;;;;;5063635;28;20089;-90
2023/09/26 09:35:58;;;;;;;4.55;4.03;;;18.80;99.90;;;;;;5048778;28;20055;-90
2023/09/26 09:38:25;;;;;;;7.05;3.83;;;18.80;99.90;;;;;;5055034;28;20074;-87
2023/09/26 09:40:51;;;;;;;;;;;18.70;99.90;;;;;;5058906;28;20049;-91
2023/09/26 09:43:19;;;;;;;5.97;3.92;;;18.70;99.90;;;;;;5038668;28;19921;-90
2023/09/26 09:45:47;;;;;;;6.05;4.35;;;18.60;99.90;;;;;;5038715;28;20046;-89
2023/09/26 09:48:14;;;;;;;5.32;3.78;;;18.60;99.90;;;;;;5049010;28;20084;-96
2023/09/26 09:50:46;;;;;;;5.38;4.10;;;18.60;99.90;;;;;;5054555;28;20036;-91
2023/09/26 09:53:18;;;;;;;6.68;4.00;;;18.90;99.90;;;;;;5063471;28;20071;-87
2023/09/26 09:55:48;;;;;;;4.85;4.00;;;19.00;99.90;;;;;;5057297;28;20074;-91
2023/09/26 09:58:17;;;;;;;5.88;3.85;;;19.10;99.90;;;;;;5043925;28;20483;-91
2023/09/26 10:00:43;;;;;;;6.22;3.85;;;18.90;99.90;;;;;;5058164;28;20067;-92
2023/09/26 10:03:11;;;;;;;5.80;4.30;;;19.40;99.90;;;;;;5055873;28;20047;-89
2023/09/26 10:05:38;;;;;;;4.53;3.50;;;19.60;99.90;;;;;;5069013;28;20932;-91
2023/09/26 10:08:06;;;;;;;5.28;3.35;;;19.70;99.90;;;;;;5063106;28;20781;-92
2023/09/26 10:10:33;;;;;;;4.80;3.78;;;19.80;99.90;;;;;;5063196;28;20047;-88
2023/09/26 10:13:02;;;;;;;5.13;3.40;;;19.80;99.90;;;;;;5040802;28;20048;-89
2023/09/26 10:15:33;;;;;;;4.93;3.45;;;19.70;99.90;;;;;;5055504;28;20044;-89
2023/09/26 10:18:02;;;;;;;5.43;3.83;;;19.80;99.90;;;;;;5048835;28;20041;-91
2023/09/26 10:20:31;;;;;;;4.90;3.42;;;19.80;99.90;;;;;;5051396;28;20051;-92
2023/09/26 10:23:10;;;;;;;4.93;3.55;;;19.80;99.90;;;;;;5074996;28;20123;-88
2023/09/26 10:25:36;;;;;;;5.47;3.65;;;19.80;99.90;;;;;;5041261;28;20073;-90
2023/09/26 10:28:04;;;;;;;6.97;3.35;;;19.80;99.90;;;;;;5057770;28;20036;-91
2023/09/26 10:30:43;;;;;;;5.47;3.70;;;19.70;99.90;;;;;;5057403;28;20036;-89
2023/09/26 10:33:09;;;;;;;6.20;3.85;;;19.80;99.90;;;;;;5057902;28;20083;-90
2023/09/26 10:35:44;;;;;;;6.45;3.83;;;19.80;99.90;;;;;;5056832;28;20036;-90
2023/09/26 10:38:16;;;;;;;7.20;3.78;;;19.90;99.90;;;;;;5048292;28;20419;-91
2023/09/26 10:40:42;;;;;;;6.97;3.58;;;19.90;99.90;;;;;;5057365;28;20036;-92
2023/09/26 10:43:09;;;;;;;7.63;4.30;;;20.00;99.90;;;;;;5064532;28;20036;-92
2023/09/26 10:45:34;;;;;;;6.40;4.40;;;20.10;99.90;;;;;;5041592;28;20044;-90
2023/09/26 10:48:07;;;;;;;8.40;4.50;;;20.00;99.90;;;;;;5057352;28;20663;-90
2023/09/26 10:50:33;;;;;;;4.95;3.92;;;19.90;99.90;;;;;;5071067;28;20054;-91
2023/09/26 10:52:59;;;;;;;5.55;3.78;;;20.00;99.90;;;;;;5089415;28;20040;-88
2023/09/26 10:55:25;;;;;;;6.35;4.00;;;20.00;99.90;;;;;;5060446;28;20517;-94
2023/09/26 10:57:51;;;;;;;4.65;3.20;;;20.00;99.90;;;;;;5053937;28;20050;-88
2023/09/26 11:00:18;;;;;;;4.18;3.30;;;20.00;99.90;;;;;;5040787;28;20043;-89
2023/09/26 11:02:46;;;;;;;4.45;3.17;;;20.10;99.90;;;;;;5058175;28;20050;-89
2023/09/26 11:05:13;;;;;;;5.90;3.53;;;20.10;99.90;;;;;;5057671;28;20558;-91
2023/09/26 11:07:41;;;;;;;4.85;3.30;;;20.20;99.90;;;;;;5057356;28;20088;-93
2023/09/26 11:10:14;;;;;;;7.47;3.65;;;20.20;99.90;;;;;;5057285;28;20056;-92
2023/09/26 11:12:41;;;;;;;5.45;3.90;;;20.20;99.90;;;;;;5074090;28;20043;-90
2023/09/26 11:15:08;;;;;;;4.50;3.25;;;20.20;99.90;;;;;;5108925;28;20071;-89
2023/09/26 11:17:35;;;;;;;4.90;3.30;;;20.20;99.90;;;;;;5041109;28;20120;-91
2023/09/26 11:20:01;;;;;;;4.20;3.50;;;20.00;99.90;;;;;;5048142;28;20542;-89
2023/09/26 11:22:26;;;;;;;5.10;3.95;;;20.20;99.90;;;;;;5053712;28;20106;-89
2023/09/26 11:25:08;;;;;;;6.00;3.97;;;20.20;99.90;;;;;;5034085;28;20050;-90
2023/09/26 11:27:45;;;;;;;5.38;3.90;;;20.20;99.90;;;;;;5057791;28;20038;-91
2023/09/26 11:30:17;;;;;;;6.85;3.97;;;20.20;99.90;;;;;;5060657;28;20503;-93
2023/09/26 11:32:48;;;;;;;3.60;3.25;;;20.20;99.90;;;;;;5065658;28;20036;-92
2023/09/26 11:35:15;;;;;;;4.95;4.00;;;20.20;99.90;;;;;;5059965;28;20059;-90
2023/09/26 11:37:41;;;;;;;4.50;3.50;;;20.30;99.90;;;;;;5058684;28;20501;-94
2023/09/26 11:40:21;;;;;;;4.22;3.47;;;20.30;99.90;;;;;;5057879;28;20039;-91
2023/09/26 11:42:51;;;;;;;4.13;3.60;;;20.20;99.90;;;;;;5061695;28;20168;-89
2023/09/26 11:45:26;;;;;;;4.10;3.58;;;20.20;99.90;;;;;;5057388;28;20040;-90
2023/09/26 11:47:59;;;;;;;4.28;3.50;;;20.20;99.90;;;;;;5057317;28;20052;-90
2023/09/26 11:50:27;;;;;;;4.43;3.35;;;20.20;99.90;;;;;;5036917;28;20051;-91
2023/09/26 11:52:56;;;;;;;4.00;3.10;;;20.20;99.90;;;;;;5037393;28;20032;-91
2023/09/26 11:55:22;;;;;;;5.00;3.28;;;20.20;99.90;;;;;;5057655;28;20422;-92
2023/09/26 11:57:51;;;;;;;4.45;3.35;;;20.20;99.90;;;;;;5049187;28;20040;-90
2023/09/26 12:00:17;;;;;;;3.25;2.90;;;20.20;99.90;;;;;;5057953;28;20135;-93
2023/09/26 12:02:44;;;;;;;4.47;3.42;;;20.20;99.90;;;;;;5071664;28;20044;-92
2023/09/26 12:05:11;;;;;;;5.50;3.35;;;20.20;99.90;;;;;;5059573;28;20066;-90
2023/09/26 12:07:38;;;;;;;4.50;3.25;;;20.20;99.90;;;;;;5075864;28;20044;-94
2023/09/26 12:10:09;;;;;;;3.55;3.05;;;20.20;99.90;;;;;;5041543;28;20044;-93
2023/09/26 12:12:35;;;;;;;4.15;2.65;;;20.30;99.90;;;;;;5057874;28;20036;-89
2023/09/26 12:15:21;;;;;;;5.20;3.00;;;20.30;99.90;;;;;;5036026;28;20097;-91
2023/09/26 12:17:56;;;;;;;3.55;2.75;;;20.30;99.90;;;;;;5062969;28;20390;-90
2023/09/26 12:20:24;;;;;;;3.53;2.58;;;20.30;99.90;;;;;;5053878;28;20044;-95
2023/09/26 12:22:55;;;;;;;3.83;3.13;;;20.30;99.90;;;;;;5045434;28;20097;-90
2023/09/26 12:25:23;;;;;;;4.72;3.33;;;20.30;99.90;;;;;;5060168;28;20043;-90
2023/09/26 12:27:50;;;;;;;4.72;2.80;;;20.30;99.90;;;;;;5060765;28;20093;-92
2023/09/26 12:30:16;;;;;;;4.95;3.10;;;20.30;99.90;;;;;;5083754;28;20040;-91
2023/09/26 12:32:43;;;;;;;3.83;2.90;;;20.40;99.90;;;;;;5060663;28;20055;-93
2023/09/26 12:35:10;;;;;;;3.97;2.83;;;20.50;99.90;;;;;;5060876;28;20527;-89
2023/09/26 12:37:36;;;;;;;4.47;3.00;;;20.50;99.90;;;;;;5061063;28;20044;-92
2023/09/26 12:40:28;;;;;;;4.45;3.00;;;20.60;99.90;;;;;;5060166;28;20044;-91
2023/09/26 12:43:58;;;;;;;;;;;;;;;;;;;;;
2023/09/26 12:46:29;;;;;;;3.08;2.40;;;20.60;99.90;;;;;;5060635;28;20055;-90
2023/09/26 12:48:54;;;;;;;3.70;2.50;;;20.60;99.90;;;;;;5039552;28;20090;-90